createdAt,value
2018-01-02T00:00:10.434Z,99755.58
2018-01-02T00:02:39.022Z,99766.61
2018-01-02T00:05:08.458Z,99765.52
2018-01-02T00:07:37.100Z,99771.41
2018-01-02T00:10:07.042Z,99783.35
2018-01-02T00:12:35.490Z,99783.59
2018-01-02T00:15:07.051Z,99784.98
2018-01-02T00:17:35.275Z,99794.76
2018-01-02T00:20:07.214Z,99794.03
2018-01-02T00:22:36.003Z,99790.28
2018-01-02T00:25:08.474Z,99803.34
2018-01-02T00:27:37.394Z,99813.47
2018-01-02T00:30:07.552Z,99807.09
2018-01-02T00:32:35.977Z,99816.91
2018-01-02T00:35:07.165Z,99806.73
2018-01-02T00:37:35.460Z,99817.86
2018-01-02T00:40:06.772Z,99821.41
2018-01-02T00:42:35.063Z,99826.31
2018-01-02T00:45:06.420Z,99826.98
2018-01-02T00:47:34.798Z,99826.75
2018-01-02T00:50:08.853Z,99834.08
2018-01-02T00:52:37.174Z,99832.97
2018-01-02T00:55:06.913Z,99842.75
2018-01-02T00:57:35.208Z,99847.92
2018-01-02T01:00:06.455Z,99847.41
2018-01-02T01:02:34.806Z,99852.84
2018-01-02T01:05:06.763Z,99856.00
2018-01-02T01:07:35.787Z,99862.14
2018-01-02T01:10:11.950Z,99863.96
2018-01-02T01:12:41.088Z,99879.47
2018-01-02T01:15:09.546Z,99880.22
2018-01-02T01:17:38.835Z,99882.34
2018-01-02T01:20:07.871Z,99890.95
2018-01-02T01:22:36.414Z,99893.31
2018-01-02T01:25:07.849Z,99894.13
2018-01-02T01:27:36.412Z,99896.98
2018-01-02T01:30:06.463Z,99899.98
2018-01-02T01:32:34.939Z,99902.67
2018-01-02T01:35:06.836Z,99903.94
2018-01-02T01:37:35.779Z,99917.63
2018-01-02T01:40:07.623Z,99920.24
2018-01-02T01:42:36.625Z,99925.38
2018-01-02T01:45:06.768Z,99928.78
2018-01-02T01:47:35.062Z,99938.73
2018-01-02T01:50:07.036Z,99942.50
2018-01-02T01:52:36.049Z,99948.49
2018-01-02T01:55:07.793Z,99942.91
2018-01-02T01:57:36.585Z,99952.74
2018-01-02T02:00:06.727Z,99955.00
2018-01-02T02:02:35.155Z,99952.81
2018-01-02T02:05:07.102Z,99960.56
2018-01-02T02:07:35.749Z,99965.44
2018-01-02T02:10:08.332Z,99961.32
2018-01-02T02:12:36.736Z,99970.42
2018-01-02T02:15:06.768Z,99965.20
2018-01-02T02:17:35.845Z,99970.59
2018-01-02T02:20:07.566Z,99970.20
2018-01-02T02:22:36.772Z,99966.66
2018-01-02T02:25:09.305Z,99964.25
2018-01-02T02:27:37.990Z,99963.63
2018-01-02T02:30:07.108Z,99964.75
2018-01-02T02:32:36.285Z,99966.91
2018-01-02T02:35:08.251Z,99966.73
2018-01-02T02:37:36.594Z,99970.86
2018-01-02T02:40:06.775Z,99975.70
2018-01-02T02:42:35.423Z,99969.30
2018-01-02T02:45:07.683Z,99973.56
2018-01-02T02:47:37.068Z,99978.78
2018-01-02T02:50:07.020Z,99978.48
2018-01-02T02:52:35.382Z,99974.21
2018-01-02T02:55:06.967Z,99976.81
2018-01-02T02:57:35.635Z,99976.72
2018-01-02T03:00:07.567Z,99979.37
2018-01-02T03:02:36.133Z,99976.50
2018-01-02T03:05:08.097Z,99975.64
2018-01-02T03:07:37.143Z,99981.91
2018-01-02T03:10:06.458Z,99980.94
2018-01-02T03:12:34.874Z,99986.11
2018-01-02T03:15:07.885Z,99985.45
2018-01-02T03:17:36.188Z,99982.60
2018-01-02T03:20:07.722Z,99980.28
2018-01-02T03:22:36.032Z,99988.37
2018-01-02T03:25:06.283Z,99987.09
2018-01-02T03:27:35.456Z,99980.14
2018-01-02T03:30:07.533Z,99982.66
2018-01-02T03:32:35.851Z,99980.56
2018-01-02T03:35:08.654Z,99979.09
2018-01-02T03:37:37.037Z,99981.44
2018-01-02T03:40:07.027Z,99979.65
2018-01-02T03:42:35.324Z,99982.55
2018-01-02T03:45:07.494Z,99985.88
2018-01-02T03:47:35.781Z,99982.60
2018-01-02T03:50:07.916Z,99997.33
2018-01-02T03:52:36.814Z,99998.17
2018-01-02T03:55:08.555Z,99994.10
2018-01-02T03:57:37.771Z,99980.98
2018-01-02T04:00:06.728Z,99996.66
2018-01-02T04:02:35.305Z,99999.63
2018-01-02T04:05:07.339Z,100000.32
2018-01-02T04:07:36.135Z,100011.37
2018-01-02T04:10:08.258Z,100014.50
2018-01-02T04:12:36.572Z,100015.21
2018-01-02T04:15:06.513Z,100013.66
2018-01-02T04:17:35.303Z,100017.08
2018-01-02T04:20:07.095Z,100014.05
2018-01-02T04:22:35.663Z,100015.44
2018-01-02T04:25:07.653Z,100021.84
2018-01-02T04:27:35.907Z,100026.14
2018-01-02T04:30:08.496Z,100028.11
2018-01-02T04:32:36.770Z,100029.80
2018-01-02T04:35:08.930Z,100034.57
2018-01-02T04:37:37.253Z,100039.73
2018-01-02T04:40:07.506Z,100048.83
2018-01-02T04:42:35.778Z,100056.18
2018-01-02T04:45:08.228Z,100050.37
2018-01-02T04:47:37.068Z,100068.26
2018-01-02T04:50:06.648Z,100071.09
2018-01-02T04:52:35.826Z,100074.80
2018-01-02T04:55:07.561Z,100080.65
2018-01-02T04:57:35.852Z,100077.63
2018-01-02T05:00:07.621Z,100089.59
2018-01-02T05:02:35.904Z,100101.72
2018-01-02T05:05:07.983Z,100105.55
2018-01-02T05:07:36.262Z,100106.83
2018-01-02T05:10:08.273Z,100114.57
2018-01-02T05:12:36.559Z,100117.44
2018-01-02T05:15:07.975Z,100136.29
2018-01-02T05:17:36.264Z,100136.02
2018-01-02T05:20:08.209Z,100135.13
2018-01-02T05:22:36.498Z,100135.52
2018-01-02T05:25:06.466Z,100154.98
2018-01-02T05:27:34.759Z,100163.12
2018-01-02T05:30:10.028Z,100174.39
2018-01-02T05:32:38.312Z,100179.70
2018-01-02T05:35:06.584Z,100178.52
2018-01-02T05:37:35.750Z,100182.50
2018-01-02T05:40:06.396Z,100189.58
2018-01-02T05:42:34.688Z,100199.09
2018-01-02T05:45:06.792Z,100209.55
2018-01-02T05:47:35.072Z,100219.00
2018-01-02T05:50:09.614Z,100212.38
2018-01-02T05:52:38.130Z,100223.75
2018-01-02T05:55:07.447Z,100222.02
2018-01-02T05:57:35.742Z,100226.70
2018-01-02T06:00:07.508Z,100226.00
2018-01-02T06:02:35.804Z,100226.24
2018-01-02T06:05:07.116Z,100236.36
2018-01-02T06:07:35.415Z,100240.22
2018-01-02T06:10:06.708Z,100246.94
2018-01-02T06:12:35.428Z,100261.28
2018-01-02T06:15:06.720Z,100253.35
2018-01-02T06:17:35.223Z,100262.19
2018-01-02T06:20:07.324Z,100258.67
2018-01-02T06:22:35.627Z,100269.14
2018-01-02T06:25:06.756Z,100276.36
2018-01-02T06:27:35.016Z,100277.54
2018-01-02T06:30:06.332Z,100294.28
2018-01-02T06:32:34.818Z,100292.56
2018-01-02T06:35:06.378Z,100305.64
2018-01-02T06:37:34.701Z,100315.92
2018-01-02T06:40:09.704Z,100322.22
2018-01-02T06:42:37.974Z,100323.59
2018-01-02T06:45:07.148Z,100312.94
2018-01-02T06:47:35.559Z,100331.14
2018-01-02T06:50:06.536Z,100335.48
2018-01-02T06:52:34.786Z,100333.05
2018-01-02T06:55:05.644Z,100339.74
2018-01-02T06:57:33.920Z,100345.91
2018-01-02T07:00:05.592Z,100348.52
2018-01-02T07:02:33.856Z,100352.83
2018-01-02T07:05:05.752Z,100352.59
2018-01-02T07:07:34.010Z,100355.69
2018-01-02T07:10:05.540Z,100360.09
2018-01-02T07:12:33.830Z,100359.54
2018-01-02T07:15:05.440Z,100353.17
2018-01-02T07:17:33.722Z,100364.48
2018-01-02T07:20:06.608Z,100382.20
2018-01-02T07:22:35.126Z,100379.14
2018-01-02T07:25:07.320Z,100384.66
2018-01-02T07:27:35.592Z,100393.63
2018-01-02T07:30:05.604Z,100399.20
2018-01-02T07:32:33.876Z,100406.45
2018-01-02T07:35:07.239Z,100405.73
2018-01-02T07:37:35.520Z,100414.89
2018-01-02T07:40:05.700Z,100414.64
2018-01-02T07:42:33.968Z,100419.49
2018-01-02T07:45:05.605Z,100429.72
2018-01-02T07:47:33.880Z,100437.89
2018-01-02T07:50:06.653Z,100451.36
2018-01-02T07:52:34.929Z,100456.77
2018-01-02T07:55:06.460Z,100466.94
2018-01-02T07:57:34.732Z,100466.64
2018-01-02T08:00:06.136Z,100483.76
2018-01-02T08:02:34.584Z,100486.11
2018-01-02T08:05:06.897Z,100487.84
2018-01-02T08:07:35.144Z,100500.55
2018-01-02T08:10:06.761Z,100503.58
2018-01-02T08:12:35.085Z,100508.73
2018-01-02T08:15:06.427Z,100519.94
2018-01-02T08:17:34.889Z,100521.66
2018-01-02T08:20:07.021Z,100532.22
2018-01-02T08:22:35.298Z,100541.84
2018-01-02T08:25:05.610Z,100542.39
2018-01-02T08:27:34.373Z,100548.17
2018-01-02T08:30:06.476Z,100558.56
2018-01-02T08:32:34.753Z,100557.42
2018-01-02T08:35:06.908Z,100557.99
2018-01-02T08:37:35.677Z,100561.23
2018-01-02T08:40:05.580Z,100575.58
2018-01-02T08:42:34.353Z,100582.66
2018-01-02T08:45:05.772Z,100588.06
2018-01-02T08:47:34.046Z,100591.09
2018-01-02T08:50:09.036Z,100595.59
2018-01-02T08:52:37.331Z,100599.91
2018-01-02T08:55:05.642Z,100608.24
2018-01-02T08:57:34.049Z,100611.77
2018-01-02T09:00:05.447Z,100605.98
2018-01-02T09:02:33.735Z,100610.63
2018-01-02T09:05:05.197Z,100616.33
2018-01-02T09:07:33.776Z,100616.33
2018-01-02T09:10:06.069Z,100632.63
2018-01-02T09:12:39.973Z,100625.54
2018-01-02T09:15:08.263Z,100626.49
2018-01-02T09:17:37.015Z,100626.25
2018-01-02T09:20:06.432Z,100636.11
2018-01-02T09:22:35.187Z,100633.49
2018-01-02T09:25:07.132Z,100636.38
2018-01-02T09:27:35.457Z,100635.13
2018-01-02T09:30:06.968Z,100634.81
2018-01-02T09:32:35.254Z,100642.25
2018-01-02T09:35:05.617Z,100644.89
2018-01-02T09:37:33.876Z,100650.81
2018-01-02T09:40:05.339Z,100655.30
2018-01-02T09:42:33.617Z,100664.17
2018-01-02T09:45:08.563Z,100655.94
2018-01-02T09:47:37.105Z,100651.33
2018-01-02T09:50:06.339Z,100660.50
2018-01-02T09:52:34.624Z,100660.64
2018-01-02T09:55:05.781Z,100655.70
2018-01-02T09:57:34.064Z,100655.48
2018-01-02T10:00:05.656Z,100663.81
2018-01-02T10:02:33.980Z,100669.67
2018-01-02T10:05:09.568Z,100663.77
2018-01-02T10:07:37.884Z,100671.61
2018-01-02T10:10:06.165Z,100667.44
2018-01-02T10:12:34.849Z,100666.03
2018-01-02T10:15:05.853Z,100669.61
2018-01-02T10:17:34.167Z,100668.34
2018-01-02T10:20:08.418Z,100664.83
2018-01-02T10:22:36.734Z,100662.56
2018-01-02T10:25:06.624Z,100664.69
2018-01-02T10:27:35.064Z,100672.30
2018-01-02T10:30:06.387Z,100663.42
2018-01-02T10:32:34.691Z,100663.16
2018-01-02T10:35:06.576Z,100674.16
2018-01-02T10:37:38.908Z,100677.66
2018-01-02T10:40:07.183Z,100684.59
2018-01-02T10:42:35.473Z,100682.41
2018-01-02T10:45:06.893Z,100689.73
2018-01-02T10:47:35.188Z,100690.52
2018-01-02T10:50:06.503Z,100682.66
2018-01-02T10:52:34.768Z,100682.43
2018-01-02T10:55:05.877Z,100684.45
2018-01-02T10:57:34.770Z,100680.03
2018-01-02T11:00:06.856Z,100690.87
2018-01-02T11:02:35.087Z,100684.10
2018-01-02T11:05:07.213Z,100688.16
2018-01-02T11:07:35.512Z,100695.36
2018-01-02T11:10:06.716Z,100698.80
2018-01-02T11:12:40.508Z,100701.16
2018-01-02T11:15:08.810Z,100706.52
2018-01-02T11:17:37.109Z,100708.05
2018-01-02T11:20:06.123Z,100717.88
2018-01-02T11:22:34.899Z,100716.80
2018-01-02T11:25:05.801Z,100719.23
2018-01-02T11:27:34.099Z,100718.63
2018-01-02T11:30:09.299Z,100713.35
2018-01-02T11:32:37.593Z,100717.55
2018-01-02T11:35:05.994Z,100718.77
2018-01-02T11:37:34.286Z,100725.08
2018-01-02T11:40:05.983Z,100723.05
2018-01-02T11:42:34.765Z,100721.37
2018-01-02T11:45:06.259Z,100727.82
2018-01-02T11:47:34.741Z,100733.28
2018-01-02T11:50:06.434Z,100731.95
2018-01-02T11:52:34.728Z,100724.36
2018-01-02T11:55:06.623Z,100714.80
2018-01-02T11:57:34.920Z,100716.36
2018-01-02T12:00:05.986Z,100705.98
2018-01-02T12:02:34.284Z,100702.88
2018-01-02T12:05:05.719Z,100695.48
2018-01-02T12:07:34.543Z,100699.22
2018-01-02T12:10:05.845Z,100693.02
2018-01-02T12:12:34.120Z,100685.34
2018-01-02T12:15:05.616Z,100679.30
2018-01-02T12:17:33.891Z,100681.94
2018-01-02T12:20:05.224Z,100689.67
2018-01-02T12:22:33.600Z,100680.30
2018-01-02T12:25:08.300Z,100680.66
2018-01-02T12:27:36.696Z,100677.70
2018-01-02T12:30:06.200Z,100669.86
2018-01-02T12:32:34.479Z,100666.20
2018-01-02T12:35:06.000Z,100656.83
2018-01-02T12:37:34.360Z,100654.14
2018-01-02T12:40:09.396Z,100651.75
2018-01-02T12:42:37.664Z,100646.29
2018-01-02T12:45:06.354Z,100652.14
2018-01-02T12:47:34.660Z,100644.58
2018-01-02T12:50:05.865Z,100653.83
2018-01-02T12:52:34.167Z,100645.29
2018-01-02T12:55:09.446Z,100649.01
2018-01-02T12:57:37.720Z,100650.64
2018-01-02T13:00:05.992Z,100650.69
2018-01-02T13:02:34.584Z,100659.76
2018-01-02T13:05:05.822Z,100670.49
2018-01-02T13:07:34.203Z,100664.23
2018-01-02T13:10:06.001Z,100673.25
2018-01-02T13:12:34.304Z,100673.02
2018-01-02T13:15:09.572Z,100671.06
2018-01-02T13:17:37.902Z,100664.09
2018-01-02T13:20:06.342Z,100662.90
2018-01-02T13:22:34.885Z,100658.87
2018-01-02T13:25:06.624Z,100655.78
2018-01-02T13:27:34.932Z,100652.52
2018-01-02T13:30:06.960Z,100643.57
2018-01-02T13:32:35.334Z,100646.64
2018-01-02T13:35:07.467Z,100645.83
2018-01-02T13:37:35.725Z,100647.70
2018-01-02T13:40:07.257Z,100663.81
2018-01-02T13:42:35.632Z,100665.99
2018-01-02T13:45:07.660Z,100666.94
2018-01-02T13:47:35.945Z,100658.23
2018-01-02T13:50:05.900Z,100649.06
2018-01-02T13:52:34.168Z,100652.27
2018-01-02T13:55:05.764Z,100644.88
2018-01-02T13:57:34.076Z,100641.19
2018-01-02T14:00:07.012Z,100644.23
2018-01-02T14:02:35.280Z,100641.19
2018-01-02T14:05:07.117Z,100639.84
2018-01-02T14:07:35.392Z,100651.09
2018-01-02T14:10:06.620Z,100640.81
2018-01-02T14:12:34.936Z,100643.80
2018-01-02T14:15:06.987Z,100642.72
2018-01-02T14:17:35.456Z,100640.71
2018-01-02T14:20:07.142Z,100638.16
2018-01-02T14:22:35.440Z,100647.87
2018-01-02T14:25:06.740Z,100654.19
2018-01-02T14:27:35.024Z,100658.05
2018-01-02T14:30:06.130Z,100653.72
2018-01-02T14:32:34.480Z,100653.61
2018-01-02T14:35:08.569Z,100649.08
2018-01-02T14:37:37.075Z,100637.80
2018-01-02T14:40:06.554Z,100629.45
2018-01-02T14:42:34.854Z,100600.84
2018-01-02T14:45:06.091Z,100605.17
2018-01-02T14:47:34.383Z,100601.12
2018-01-02T14:50:09.623Z,100594.03
2018-01-02T14:52:38.108Z,100601.70
2018-01-02T14:55:06.639Z,100599.13
2018-01-02T14:57:34.957Z,100591.81
2018-01-02T15:00:07.581Z,100583.31
2018-01-02T15:02:35.859Z,100580.15
2018-01-02T15:05:07.832Z,100580.88
2018-01-02T15:07:36.138Z,100580.92
2018-01-02T15:10:07.889Z,100580.56
2018-01-02T15:12:36.493Z,100580.22
2018-01-02T15:15:07.767Z,100586.42
2018-01-02T15:17:36.066Z,100590.33
2018-01-02T15:20:07.360Z,100582.22
2018-01-02T15:22:35.648Z,100587.92
2018-01-02T15:25:07.160Z,100589.77
2018-01-02T15:27:35.794Z,100592.70
2018-01-02T15:30:08.403Z,100591.91
2018-01-02T15:32:36.792Z,100594.91
2018-01-02T15:35:06.689Z,100607.12
2018-01-02T15:37:35.024Z,100607.30
2018-01-02T15:40:07.032Z,100603.91
2018-01-02T15:42:35.380Z,100598.64
2018-01-02T15:45:07.547Z,100601.20
2018-01-02T15:47:36.279Z,100603.84
2018-01-02T15:50:07.889Z,100606.19
2018-01-02T15:52:36.342Z,100598.28
2018-01-02T15:55:06.741Z,100575.99
2018-01-02T15:57:35.665Z,100567.27
2018-01-02T16:00:07.631Z,100584.58
2018-01-02T16:02:36.173Z,100603.41
2018-01-02T16:05:07.648Z,100587.85
2018-01-02T16:07:35.959Z,100586.31
2018-01-02T16:10:07.924Z,100585.93
2018-01-02T16:12:39.061Z,100586.78
2018-01-02T16:15:08.862Z,100590.98
2018-01-02T16:17:37.190Z,100589.34
2018-01-02T16:20:06.600Z,100594.62
2018-01-02T16:22:35.335Z,100587.25
2018-01-02T16:25:07.956Z,100589.99
2018-01-02T16:27:36.870Z,100582.41
2018-01-02T16:30:07.627Z,100574.25
2018-01-02T16:32:36.356Z,100560.55
2018-01-02T16:35:09.024Z,100548.94
2018-01-02T16:37:37.409Z,100554.49
2018-01-02T16:40:06.469Z,100536.94
2018-01-02T16:42:34.783Z,100529.39
2018-01-02T16:45:06.897Z,100523.95
2018-01-02T16:47:35.615Z,100517.50
2018-01-02T16:50:08.201Z,100510.38
2018-01-02T16:52:37.371Z,100506.78
2018-01-02T16:55:06.942Z,100514.33
2018-01-02T16:57:35.308Z,100506.29
2018-01-02T17:00:07.479Z,100495.71
2018-01-02T17:02:35.966Z,100485.28
2018-01-02T17:05:06.045Z,100475.98
2018-01-02T17:07:34.371Z,100476.91
2018-01-02T17:10:06.208Z,100465.45
2018-01-02T17:12:34.521Z,100469.21
2018-01-02T17:15:05.776Z,100453.05
2018-01-02T17:17:34.116Z,100458.83
2018-01-02T17:20:05.500Z,100457.48
2018-01-02T17:22:33.784Z,100451.05
2018-01-02T17:25:09.005Z,100444.95
2018-01-02T17:27:37.334Z,100443.97
2018-01-02T17:30:05.813Z,100430.75
2018-01-02T17:32:34.779Z,100423.67
2018-01-02T17:35:06.626Z,100434.09
2018-01-02T17:37:35.276Z,100439.71
2018-01-02T17:40:06.882Z,100440.37
2018-01-02T17:42:35.222Z,100423.13
2018-01-02T17:45:07.371Z,100412.81
2018-01-02T17:47:35.680Z,100398.43
2018-01-02T17:50:07.209Z,100391.38
2018-01-02T17:52:35.538Z,100385.26
2018-01-02T17:55:07.286Z,100386.34
2018-01-02T17:57:35.608Z,100401.49
2018-01-02T18:00:07.061Z,100414.61
2018-01-02T18:02:35.362Z,100411.84
2018-01-02T18:05:07.105Z,100397.70
2018-01-02T18:07:35.491Z,100383.98
2018-01-02T18:10:06.962Z,100385.14
2018-01-02T18:12:35.353Z,100392.63
2018-01-02T18:15:06.620Z,100394.55
2018-01-02T18:17:35.073Z,100391.25
2018-01-02T18:20:06.517Z,100391.25
2018-01-02T18:22:35.692Z,100388.27
2018-01-02T18:25:07.151Z,100389.18
2018-01-02T18:27:35.870Z,100386.27
2018-01-02T18:30:07.731Z,100383.04
2018-01-02T18:32:36.065Z,100389.99
2018-01-02T18:35:06.328Z,100396.48
2018-01-02T18:37:34.618Z,100371.11
2018-01-02T18:40:06.753Z,100372.89
2018-01-02T18:42:35.742Z,100363.75
2018-01-02T18:45:07.292Z,100352.08
2018-01-02T18:47:35.582Z,100349.30
2018-01-02T18:50:07.529Z,100342.06
2018-01-02T18:52:36.020Z,100323.82
2018-01-02T18:55:06.132Z,100328.13
2018-01-02T18:57:34.511Z,100316.11
2018-01-02T19:00:06.044Z,100301.39
2018-01-02T19:02:35.316Z,100299.36
2018-01-02T19:05:07.302Z,100296.48
2018-01-02T19:07:35.605Z,100289.44
2018-01-02T19:10:07.062Z,100283.86
2018-01-02T19:12:35.668Z,100257.73
2018-01-02T19:15:07.418Z,100257.81
2018-01-02T19:17:35.737Z,100252.53
2018-01-02T19:20:07.894Z,100240.37
2018-01-02T19:22:36.383Z,100237.55
2018-01-02T19:25:08.183Z,100233.63
2018-01-02T19:27:36.465Z,100236.52
2018-01-02T19:30:06.515Z,100227.87
2018-01-02T19:32:34.836Z,100232.98
2018-01-02T19:35:06.911Z,100225.03
2018-01-02T19:37:35.246Z,100226.25
2018-01-02T19:40:07.224Z,100221.99
2018-01-02T19:42:35.518Z,100217.03
2018-01-02T19:45:07.690Z,100201.30
2018-01-02T19:47:35.996Z,100180.45
2018-01-02T19:50:09.140Z,100183.02
2018-01-02T19:52:37.466Z,100165.48
2018-01-02T19:55:06.473Z,100160.36
2018-01-02T19:57:34.799Z,100158.41
2018-01-02T20:00:06.257Z,100159.56
2018-01-02T20:02:34.949Z,100158.01
2018-01-02T20:05:08.258Z,100146.28
2018-01-02T20:07:36.556Z,100144.10
2018-01-02T20:10:07.529Z,100133.89
2018-01-02T20:12:35.874Z,100144.39
2018-01-02T20:15:05.994Z,100129.48
2018-01-02T20:17:34.758Z,100136.72
2018-01-02T20:20:05.938Z,100130.14
2018-01-02T20:22:34.256Z,100132.73
2018-01-02T20:25:06.214Z,100119.76
2018-01-02T20:27:34.516Z,100131.73
2018-01-02T20:30:06.735Z,100086.30
2018-01-02T20:32:35.071Z,100100.91
2018-01-02T20:35:07.241Z,100094.91
2018-01-02T20:37:35.555Z,100072.83
2018-01-02T20:40:08.410Z,100063.38
2018-01-02T20:42:36.755Z,100048.20
2018-01-02T20:45:06.287Z,100059.65
2018-01-02T20:47:34.597Z,100045.70
2018-01-02T20:50:07.196Z,100053.14
2018-01-02T20:52:35.951Z,100030.87
2018-01-02T20:55:07.426Z,100037.46
2018-01-02T20:57:35.708Z,100036.13
2018-01-02T21:00:07.789Z,100032.07
2018-01-02T21:02:36.064Z,100031.02
2018-01-02T21:05:06.308Z,100029.56
2018-01-02T21:07:34.619Z,100012.81
2018-01-02T21:10:06.754Z,100020.64
2018-01-02T21:12:35.038Z,100018.18
2018-01-02T21:15:07.362Z,100014.35
2018-01-02T21:17:36.435Z,100001.03
2018-01-02T21:20:06.595Z,100004.66
2018-01-02T21:22:34.837Z,99997.62
2018-01-02T21:25:06.043Z,99986.34
2018-01-02T21:27:34.398Z,99972.84
2018-01-02T21:30:09.390Z,99977.63
2018-01-02T21:32:37.676Z,99965.29
2018-01-02T21:35:05.992Z,99948.46
2018-01-02T21:37:34.305Z,99943.02
2018-01-02T21:40:10.258Z,99940.45
2018-01-02T21:42:38.530Z,99927.70
2018-01-02T21:45:07.425Z,99935.25
2018-01-02T21:47:35.698Z,99924.56
2018-01-02T21:50:07.193Z,99917.01
2018-01-02T21:52:36.114Z,99899.69
2018-01-02T21:55:06.193Z,99902.59
2018-01-02T21:57:34.443Z,99889.53
2018-01-02T22:00:09.482Z,99883.44
2018-01-02T22:02:38.284Z,99874.28
2018-01-02T22:05:06.550Z,99865.19
2018-01-02T22:07:34.835Z,99860.27
2018-01-02T22:10:07.024Z,99838.72
2018-01-02T22:12:35.286Z,99850.29
2018-01-02T22:15:06.112Z,99837.78
2018-01-02T22:17:34.346Z,99823.16
2018-01-02T22:20:09.800Z,99818.25
2018-01-02T22:22:38.077Z,99806.31
2018-01-02T22:25:06.358Z,99801.94
2018-01-02T22:27:34.661Z,99791.73
2018-01-02T22:30:06.230Z,99772.19
2018-01-02T22:32:34.482Z,99773.52
2018-01-02T22:35:06.572Z,99754.86
2018-01-02T22:37:34.798Z,99744.23
2018-01-02T22:40:07.164Z,99746.52
2018-01-02T22:42:35.444Z,99745.06
2018-01-02T22:45:06.058Z,99733.76
2018-01-02T22:47:34.416Z,99733.20
2018-01-02T22:50:09.566Z,99725.30
2018-01-02T22:52:37.855Z,99704.43
2018-01-02T22:55:07.012Z,99697.55
2018-01-02T22:57:35.253Z,99693.37
2018-01-02T23:00:06.081Z,99686.69
2018-01-02T23:02:34.365Z,99672.71
2018-01-02T23:05:05.882Z,99667.30
2018-01-02T23:07:34.362Z,99664.50
2018-01-02T23:10:05.892Z,99647.37
2018-01-02T23:12:34.329Z,99637.88
2018-01-02T23:15:08.230Z,99626.77
2018-01-02T23:17:36.546Z,99638.70
2018-01-02T23:20:06.522Z,99614.80
2018-01-02T23:22:34.780Z,99619.92
2018-01-02T23:25:08.716Z,99625.52
2018-01-02T23:27:36.972Z,99624.56
2018-01-02T23:30:06.980Z,99599.67
2018-01-02T23:32:35.272Z,99603.23
2018-01-02T23:35:07.308Z,99587.97
2018-01-02T23:37:35.847Z,99591.45
2018-01-02T23:40:07.608Z,99589.55
2018-01-02T23:42:35.901Z,99596.82
2018-01-02T23:45:07.128Z,99580.16
2018-01-02T23:47:35.518Z,99579.42
2018-01-02T23:50:06.924Z,99569.63
2018-01-02T23:52:35.223Z,99552.48
2018-01-02T23:55:06.128Z,99380.91
2018-01-02T23:57:34.425Z,99517.23
